createdAt,value
2018-09-17T00:00:37.409Z,89.20
2018-09-17T00:03:07.748Z,88.80
2018-09-17T00:05:38.017Z,88.80
2018-09-17T00:08:08.350Z,88.70
2018-09-17T00:10:38.593Z,88.50
2018-09-17T00:13:08.889Z,88.70
2018-09-17T00:15:39.449Z,88.90
2018-09-17T00:18:09.724Z,88.60
2018-09-17T00:20:40.033Z,88.30
2018-09-17T00:23:10.452Z,88.80
2018-09-17T00:25:46.206Z,88.90
2018-09-17T00:28:16.817Z,89.00
2018-09-17T00:30:47.108Z,89.30
2018-09-17T00:33:17.396Z,89.20
2018-09-17T00:35:47.644Z,89.10
2018-09-17T00:38:17.985Z,89.30
2018-09-17T00:40:48.281Z,89.20
2018-09-17T00:43:18.517Z,89.30
2018-09-17T00:45:48.904Z,89.40
2018-09-17T00:48:19.202Z,89.40
2018-09-17T00:50:49.471Z,89.70
2018-09-17T00:53:19.705Z,89.90
2018-09-17T00:55:49.976Z,89.80
2018-09-17T00:58:20.706Z,90.10
2018-09-17T01:00:50.975Z,90.10
2018-09-17T01:03:21.281Z,90.20
2018-09-17T01:05:51.545Z,90.20
2018-09-17T01:08:21.905Z,90.30
2018-09-17T01:10:52.179Z,90.10
2018-09-17T01:13:22.512Z,90.20
2018-09-17T01:15:52.751Z,90.20
2018-09-17T01:18:23.051Z,90.40
2018-09-17T01:20:53.409Z,90.60
2018-09-17T01:23:23.724Z,90.60
2018-09-17T01:25:54.070Z,90.60
2018-09-17T01:28:24.424Z,90.70
2018-09-17T01:30:54.723Z,90.90
2018-09-17T01:33:25.022Z,90.80
2018-09-17T01:35:55.281Z,90.90
2018-09-17T01:38:25.588Z,91.00
2018-09-17T01:40:55.979Z,91.00
2018-09-17T01:43:26.333Z,90.90
2018-09-17T01:45:56.634Z,91.10
2018-09-17T01:48:29.361Z,91.10
2018-09-17T01:50:59.709Z,91.00
2018-09-17T01:53:30.006Z,90.90
2018-09-17T01:56:00.384Z,90.80
2018-09-17T01:58:30.730Z,91.00
2018-09-17T02:01:01.098Z,90.80
2018-09-17T02:03:31.366Z,90.70
2018-09-17T02:06:01.703Z,90.90
2018-09-17T02:08:32.085Z,90.90
2018-09-17T02:11:02.426Z,90.90
2018-09-17T02:13:32.788Z,90.90
2018-09-17T02:16:03.133Z,90.90
2018-09-17T02:18:33.413Z,90.90
2018-09-17T02:21:03.996Z,90.90
2018-09-17T02:23:34.347Z,90.90
2018-09-17T02:26:04.720Z,91.00
2018-09-17T02:28:35.115Z,91.20
2018-09-17T02:31:05.599Z,91.10
2018-09-17T02:33:35.874Z,91.30
2018-09-17T02:36:06.597Z,91.40
2018-09-17T02:38:36.892Z,91.40
2018-09-17T02:41:07.275Z,91.40
2018-09-17T02:43:37.601Z,91.60
2018-09-17T02:46:08.040Z,91.70
2018-09-17T02:48:38.515Z,91.80
2018-09-17T02:51:08.819Z,91.70
2018-09-17T02:53:39.266Z,91.70
2018-09-17T02:56:09.540Z,91.50
2018-09-17T02:58:39.846Z,91.50
2018-09-17T03:01:10.217Z,91.70
2018-09-17T03:03:40.493Z,91.40
2018-09-17T03:06:10.829Z,91.50
2018-09-17T03:08:41.118Z,91.60
2018-09-17T03:11:11.542Z,91.60
2018-09-17T03:13:41.829Z,91.50
2018-09-17T03:16:12.196Z,91.50
2018-09-17T03:18:55.757Z,91.70
2018-09-17T03:21:26.045Z,91.90
2018-09-17T03:23:56.317Z,91.80
2018-09-17T03:26:26.604Z,92.10
2018-09-17T03:28:56.908Z,91.90
2018-09-17T03:31:27.316Z,91.90
2018-09-17T03:33:57.581Z,91.90
2018-09-17T03:36:27.921Z,91.80
2018-09-17T03:38:58.229Z,92.20
2018-09-17T03:41:28.579Z,91.90
2018-09-17T03:43:58.939Z,91.90
2018-09-17T03:46:29.261Z,92.00
2018-09-17T03:48:59.553Z,92.20
2018-09-17T03:51:29.874Z,92.20
2018-09-17T03:54:00.131Z,92.30
2018-09-17T03:56:30.465Z,92.30
2018-09-17T03:59:00.702Z,92.30
2018-09-17T04:01:31.018Z,92.30
2018-09-17T04:04:01.445Z,92.30
2018-09-17T04:06:31.795Z,92.40
2018-09-17T04:09:02.097Z,92.80
2018-09-17T04:11:32.356Z,92.60
2018-09-17T04:14:02.688Z,92.80
2018-09-17T04:16:32.997Z,92.80
2018-09-17T04:19:03.444Z,93.00
2018-09-17T04:21:33.761Z,93.00
2018-09-17T04:24:04.144Z,93.10
2018-09-17T04:26:34.472Z,93.20
2018-09-17T04:29:05.281Z,93.20
2018-09-17T04:31:35.642Z,93.10
2018-09-17T04:34:05.866Z,93.10
2018-09-17T04:36:36.239Z,93.30
2018-09-17T04:39:10.069Z,93.30
2018-09-17T04:41:40.481Z,93.40
2018-09-17T04:44:10.929Z,93.40
2018-09-17T04:46:41.229Z,93.60
2018-09-17T04:49:11.542Z,93.50
2018-09-17T04:51:41.858Z,93.50
2018-09-17T04:54:12.168Z,93.60
2018-09-17T04:56:42.568Z,93.80
2018-09-17T04:59:12.906Z,93.80
2018-09-17T05:01:43.253Z,93.70
2018-09-17T05:04:13.554Z,93.60
2018-09-17T05:06:43.959Z,93.60
2018-09-17T05:09:14.293Z,93.60
2018-09-17T05:11:44.620Z,93.70
2018-09-17T05:14:14.905Z,93.70
2018-09-17T05:16:45.579Z,93.60
2018-09-17T05:19:15.897Z,93.60
2018-09-17T05:21:46.531Z,93.30
2018-09-17T05:24:16.792Z,93.70
2018-09-17T05:26:47.340Z,93.60
2018-09-17T05:29:17.592Z,93.20
2018-09-17T05:31:47.921Z,93.00
2018-09-17T05:34:18.293Z,93.10
2018-09-17T05:36:48.737Z,92.80
2018-09-17T05:39:19.043Z,92.80
2018-09-17T05:41:49.731Z,92.90
2018-09-17T05:44:20.053Z,92.50
2018-09-17T05:46:50.341Z,92.30
2018-09-17T05:49:20.620Z,92.20
2018-09-17T05:51:50.866Z,92.00
2018-09-17T05:54:21.219Z,91.90
2018-09-17T05:56:51.508Z,91.80
2018-09-17T05:59:21.781Z,91.80
2018-09-17T06:01:52.443Z,91.80
2018-09-17T06:04:22.709Z,91.80
2018-09-17T06:06:53.367Z,91.80
2018-09-17T06:09:23.611Z,91.70
2018-09-17T06:11:54.093Z,91.60
2018-09-17T06:14:24.385Z,91.40
2018-09-17T06:16:54.718Z,91.10
2018-09-17T06:19:25.016Z,90.80
2018-09-17T06:21:55.863Z,90.80
2018-09-17T06:24:26.499Z,90.20
2018-09-17T06:26:57.105Z,90.10
2018-09-17T06:29:27.335Z,89.90
2018-09-17T06:31:57.637Z,90.10
2018-09-17T06:34:27.985Z,90.20
2018-09-17T06:39:28.653Z,90.30
2018-09-17T06:41:59.119Z,89.70
2018-09-17T06:44:29.525Z,89.60
2018-09-17T06:46:59.812Z,89.10
2018-09-17T06:49:31.573Z,88.60
2018-09-17T06:52:02.156Z,87.60
2018-09-17T06:54:32.412Z,87.90
2018-09-17T06:57:02.661Z,87.60
2018-09-17T06:59:32.973Z,87.90
2018-09-17T07:02:03.316Z,87.70
2018-09-17T07:04:33.613Z,87.60
2018-09-17T07:07:04.341Z,88.30
2018-09-17T07:09:34.675Z,87.20
2018-09-17T07:12:04.977Z,87.30
2018-09-17T07:14:35.309Z,86.90
2018-09-17T07:17:05.616Z,86.60
2018-09-17T07:19:35.953Z,86.30
2018-09-17T07:22:06.313Z,86.50
2018-09-17T07:24:36.637Z,86.10
2018-09-17T07:27:06.974Z,85.50
2018-09-17T07:29:37.304Z,85.20
2018-09-17T07:32:07.745Z,83.90
2018-09-17T07:34:38.088Z,84.00
2018-09-17T07:37:08.403Z,84.50
2018-09-17T07:39:38.711Z,84.00
2018-09-17T07:42:09.554Z,84.00
2018-09-17T07:44:39.804Z,84.70
2018-09-17T07:47:10.200Z,85.80
2018-09-17T07:49:40.552Z,84.80
2018-09-17T07:52:10.872Z,82.70
2018-09-17T07:54:41.185Z,82.50
2018-09-17T07:57:11.520Z,82.50
2018-09-17T07:59:41.889Z,83.20
2018-09-17T08:02:12.220Z,83.10
2018-09-17T08:04:42.524Z,83.30
2018-09-17T08:07:12.826Z,82.70
2018-09-17T08:09:43.150Z,81.70
2018-09-17T08:12:13.480Z,81.00
2018-09-17T08:14:43.837Z,80.30
2018-09-17T08:17:14.229Z,79.00
2018-09-17T08:19:44.628Z,79.40
2018-09-17T08:22:14.933Z,79.50
2018-09-17T08:24:45.196Z,79.30
2018-09-17T08:27:15.561Z,77.80
2018-09-17T08:29:45.846Z,77.80
2018-09-17T08:32:16.205Z,77.00
2018-09-17T08:34:46.455Z,77.00
2018-09-17T08:37:16.724Z,75.70
2018-09-17T08:39:46.996Z,75.10
2018-09-17T08:42:17.308Z,74.10
2018-09-17T08:44:47.563Z,75.20
2018-09-17T08:47:17.857Z,75.70
2018-09-17T08:49:48.242Z,75.20
2018-09-17T08:52:18.746Z,73.30
2018-09-17T08:54:54.285Z,72.60
2018-09-17T08:57:29.955Z,72.50
2018-09-17T09:00:05.259Z,72.90
2018-09-17T09:02:40.668Z,70.60
2018-09-17T09:05:15.906Z,70.50
2018-09-17T09:07:51.626Z,71.60
2018-09-17T09:10:27.648Z,70.10
2018-09-17T09:13:03.551Z,70.20
2018-09-17T09:15:40.269Z,69.60
2018-09-17T09:18:11.057Z,71.00
2018-09-17T09:20:41.387Z,69.50
2018-09-17T09:23:11.705Z,69.70
2018-09-17T09:25:42.014Z,68.20
2018-09-17T09:28:12.345Z,66.30
2018-09-17T09:30:42.629Z,65.70
2018-09-17T09:33:12.897Z,65.30
2018-09-17T09:35:43.220Z,63.20
2018-09-17T09:38:13.523Z,62.40
2018-09-17T09:40:43.767Z,60.70
2018-09-17T09:43:14.024Z,58.90
2018-09-17T09:45:44.333Z,59.50
2018-09-17T09:48:14.651Z,57.50
2018-09-17T09:50:44.943Z,57.00
2018-09-17T09:53:15.287Z,56.50
2018-09-17T09:55:45.929Z,55.80
2018-09-17T09:58:16.237Z,54.90
2018-09-17T10:00:51.699Z,52.20
2018-09-17T10:04:25.669Z,53.20
2018-09-17T10:06:56.025Z,53.00
2018-09-17T10:09:31.466Z,51.80
2018-09-17T10:12:06.814Z,53.00
2018-09-17T10:14:42.321Z,53.70
2018-09-17T10:17:17.773Z,52.30
2018-09-17T10:19:48.882Z,51.10
2018-09-17T10:22:20.001Z,52.80
2018-09-17T10:24:50.411Z,52.00
2018-09-17T10:27:20.726Z,51.30
2018-09-17T10:29:51.057Z,51.20
2018-09-17T10:32:21.278Z,52.20
2018-09-17T10:34:51.567Z,51.70
2018-09-17T10:37:21.912Z,50.40
2018-09-17T10:39:52.206Z,51.60
2018-09-17T10:42:22.783Z,51.90
2018-09-17T10:44:53.093Z,53.00
2018-09-17T10:47:23.425Z,52.80
2018-09-17T10:49:53.762Z,51.90
2018-09-17T10:52:24.303Z,52.90
2018-09-17T10:54:54.590Z,53.30
2018-09-17T10:57:24.937Z,53.40
2018-09-17T10:59:55.242Z,53.20
2018-09-17T11:02:25.509Z,52.90
2018-09-17T11:04:55.773Z,52.20
2018-09-17T11:07:26.127Z,51.30
2018-09-17T11:09:56.392Z,50.20
2018-09-17T11:12:26.738Z,51.20
2018-09-17T11:14:57.040Z,50.10
2018-09-17T11:17:27.423Z,47.60
2018-09-17T11:19:57.680Z,48.80
2018-09-17T11:22:27.921Z,48.50
2018-09-17T11:24:58.195Z,47.60
2018-09-17T11:27:28.530Z,46.50
2018-09-17T11:29:59.934Z,45.70
2018-09-17T11:32:30.199Z,44.80
2018-09-17T11:35:00.429Z,43.20
2018-09-17T11:37:30.777Z,43.30
2018-09-17T11:40:01.058Z,42.50
2018-09-17T11:42:31.401Z,42.20
2018-09-17T11:45:01.785Z,39.80
2018-09-17T11:47:32.197Z,39.40
2018-09-17T11:50:02.500Z,38.90
2018-09-17T11:52:32.894Z,39.10
2018-09-17T11:55:03.556Z,39.90
2018-09-17T11:57:33.848Z,40.40
2018-09-17T12:00:04.220Z,40.60
2018-09-17T12:02:38.077Z,42.50
2018-09-17T12:05:11.061Z,43.00
2018-09-17T12:07:46.788Z,45.10
2018-09-17T12:10:19.023Z,46.20
2018-09-17T12:12:49.306Z,45.50
2018-09-17T12:15:19.914Z,46.60
2018-09-17T12:17:50.257Z,45.60
2018-09-17T12:20:20.608Z,45.90
2018-09-17T12:22:50.879Z,45.50
2018-09-17T12:25:21.198Z,44.40
2018-09-17T12:27:51.507Z,44.50
2018-09-17T12:30:21.823Z,46.30
2018-09-17T12:32:52.150Z,47.50
2018-09-17T12:35:23.206Z,46.60
2018-09-17T12:37:53.498Z,45.90
2018-09-17T12:40:25.151Z,45.90
2018-09-17T12:42:55.589Z,45.00
2018-09-17T12:45:26.414Z,43.90
2018-09-17T12:47:56.773Z,44.20
2018-09-17T12:50:27.135Z,45.20
2018-09-17T12:52:57.444Z,46.10
2018-09-17T12:55:27.809Z,45.90
2018-09-17T12:57:58.109Z,46.10
2018-09-17T13:00:28.488Z,46.50
2018-09-17T13:02:58.841Z,46.20
2018-09-17T13:05:29.203Z,45.70
2018-09-17T13:07:59.491Z,46.10
2018-09-17T13:10:29.804Z,47.00
2018-09-17T13:13:00.173Z,48.60
2018-09-17T13:15:30.532Z,48.70
2018-09-17T13:18:02.537Z,47.80
2018-09-17T13:20:32.813Z,48.20
2018-09-17T13:23:03.501Z,48.10
2018-09-17T13:25:33.774Z,47.40
2018-09-17T13:28:04.153Z,48.50
2018-09-17T13:30:34.416Z,48.30
2018-09-17T13:33:04.761Z,48.70
2018-09-17T13:35:35.047Z,49.30
2018-09-17T13:38:05.369Z,49.90
2018-09-17T13:40:35.669Z,49.80
2018-09-17T13:43:06.062Z,50.00
2018-09-17T13:45:36.445Z,50.10
2018-09-17T13:48:06.905Z,49.60
2018-09-17T13:50:37.210Z,49.90
2018-09-17T13:53:07.572Z,49.90
2018-09-17T13:55:37.846Z,50.30
2018-09-17T13:58:08.176Z,51.10
2018-09-17T14:00:38.549Z,50.50
2018-09-17T14:03:09.468Z,49.60
2018-09-17T14:05:39.773Z,49.80
2018-09-17T14:08:10.176Z,49.60
2018-09-17T14:10:40.467Z,49.80
2018-09-17T14:13:10.790Z,51.00
2018-09-17T14:15:45.129Z,50.70
2018-09-17T14:18:15.450Z,50.70
2018-09-17T14:20:46.445Z,50.40
2018-09-17T14:23:17.897Z,50.30
2018-09-17T14:25:48.192Z,50.80
2018-09-17T14:28:18.614Z,51.60
2018-09-17T14:30:49.301Z,51.50
2018-09-17T14:33:24.856Z,51.70
2018-09-17T14:35:55.441Z,52.00
2018-09-17T14:38:25.853Z,52.00
2018-09-17T14:40:56.290Z,52.10
2018-09-17T14:43:26.551Z,51.00
2018-09-17T14:45:57.597Z,51.20
2018-09-17T14:48:27.911Z,51.50
2018-09-17T14:50:58.201Z,51.00
2018-09-17T14:53:28.605Z,51.50
2018-09-17T14:55:58.870Z,51.40
2018-09-17T14:58:29.118Z,51.70
2018-09-17T15:00:59.357Z,52.40
2018-09-17T15:03:29.636Z,52.10
2018-09-17T15:05:59.989Z,51.10
2018-09-17T15:08:30.343Z,50.50
2018-09-17T15:11:00.606Z,51.10
2018-09-17T15:13:30.943Z,50.80
2018-09-17T15:16:02.241Z,50.90
2018-09-17T15:18:32.643Z,51.00
2018-09-17T15:21:02.827Z,51.00
2018-09-17T15:23:33.136Z,50.90
2018-09-17T15:26:03.484Z,51.00
2018-09-17T15:28:33.787Z,51.20
2018-09-17T15:31:04.115Z,51.90
2018-09-17T15:33:34.348Z,53.00
2018-09-17T15:36:04.688Z,52.40
2018-09-17T15:38:34.946Z,52.40
2018-09-17T15:41:05.384Z,51.90
2018-09-17T15:43:35.603Z,51.60
2018-09-17T15:46:05.970Z,52.00
2018-09-17T15:48:36.302Z,53.10
2018-09-17T15:51:06.628Z,54.40
2018-09-17T15:53:36.921Z,56.50
2018-09-17T15:56:07.625Z,57.70
2018-09-17T15:58:38.260Z,58.70
2018-09-17T16:01:09.249Z,60.50
2018-09-17T16:03:39.575Z,60.50
2018-09-17T16:06:09.943Z,61.10
2018-09-17T16:08:40.531Z,61.80
2018-09-17T16:11:10.889Z,62.20
2018-09-17T16:13:41.349Z,62.70
2018-09-17T16:16:12.582Z,63.60
2018-09-17T16:18:43.893Z,64.80
2018-09-17T16:21:14.273Z,65.30
2018-09-17T16:23:44.720Z,65.90
2018-09-17T16:26:15.022Z,66.80
2018-09-17T16:28:45.324Z,67.00
2018-09-17T16:31:15.661Z,67.40
2018-09-17T16:33:45.989Z,68.30
2018-09-17T16:36:16.321Z,68.90
2018-09-17T16:38:47.062Z,69.40
2018-09-17T16:41:17.383Z,70.10
2018-09-17T16:43:47.658Z,70.70
2018-09-17T16:46:18.044Z,71.40
2018-09-17T16:48:48.345Z,72.10
2018-09-17T16:51:18.661Z,72.60
2018-09-17T16:53:49.126Z,72.90
2018-09-17T16:56:19.484Z,73.70
2018-09-17T16:58:49.880Z,74.00
2018-09-17T17:01:20.137Z,74.60
2018-09-17T17:03:50.558Z,75.10
2018-09-17T17:06:20.929Z,75.40
2018-09-17T17:08:51.255Z,76.00
2018-09-17T17:11:21.696Z,76.20
2018-09-17T17:13:51.950Z,76.80
2018-09-17T17:16:22.419Z,77.10
2018-09-17T17:18:53.253Z,77.70
2018-09-17T17:21:23.932Z,77.50
2018-09-17T17:23:54.406Z,78.50
2018-09-17T17:26:24.931Z,78.90
2018-09-17T17:28:55.565Z,79.40
2018-09-17T17:31:26.129Z,80.10
2018-09-17T17:33:56.733Z,79.60
2018-09-17T17:36:27.393Z,80.00
2018-09-17T17:38:57.893Z,80.30
2018-09-17T17:41:28.485Z,80.50
2018-09-17T17:43:58.970Z,80.90
2018-09-17T17:46:29.556Z,81.30
2018-09-17T17:49:00.294Z,81.50
2018-09-17T17:51:32.620Z,81.90
2018-09-17T17:54:03.166Z,82.00
2018-09-17T17:56:33.729Z,82.20
2018-09-17T17:59:04.389Z,82.70
2018-09-17T18:01:35.349Z,83.00
2018-09-17T18:04:05.899Z,83.20
2018-09-17T18:06:36.527Z,83.40
2018-09-17T18:09:11.327Z,83.80
2018-09-17T18:11:41.892Z,84.00
2018-09-17T18:14:12.629Z,84.30
2018-09-17T18:16:44.859Z,84.00
2018-09-17T18:19:16.446Z,84.30
2018-09-17T18:21:47.075Z,84.40
2018-09-17T18:24:17.729Z,84.80
2018-09-17T18:26:48.945Z,85.70
2018-09-17T18:29:19.865Z,85.60
2018-09-17T18:31:50.649Z,86.00
2018-09-17T18:34:21.461Z,86.50
2018-09-17T18:36:52.016Z,86.60
2018-09-17T18:39:22.986Z,86.60
2018-09-17T18:41:53.437Z,86.50
2018-09-17T18:44:24.457Z,87.00
2018-09-17T18:46:55.661Z,87.40
2018-09-17T18:49:26.665Z,87.90
2018-09-17T18:51:57.572Z,88.20
2018-09-17T18:54:28.349Z,88.60
2018-09-17T18:57:00.488Z,88.80
2018-09-17T18:59:31.762Z,89.10
2018-09-17T19:02:02.995Z,88.90
2018-09-17T19:04:34.152Z,89.10
2018-09-17T19:07:04.838Z,89.10
2018-09-17T19:09:41.260Z,89.30
2018-09-17T19:12:11.887Z,89.50
2018-09-17T19:14:47.997Z,89.60
2018-09-17T19:17:23.685Z,89.60
2018-09-17T19:19:55.249Z,89.90
2018-09-17T19:22:31.515Z,89.90
2018-09-17T19:25:02.430Z,90.10
2018-09-17T19:27:45.333Z,90.20
2018-09-17T19:30:17.103Z,90.10
2018-09-17T19:32:47.710Z,90.10
2018-09-17T19:35:19.091Z,90.10
2018-09-17T19:37:55.035Z,90.30
2018-09-17T19:40:25.734Z,90.40
2018-09-17T19:42:56.160Z,90.50
2018-09-17T19:45:31.789Z,90.50
2018-09-17T19:48:02.828Z,90.50
2018-09-17T19:50:39.092Z,90.50
2018-09-17T19:53:09.781Z,90.60
2018-09-17T19:55:40.875Z,90.70
2018-09-17T19:58:16.630Z,90.70
2018-09-17T20:00:47.254Z,90.80
2018-09-17T20:03:18.301Z,92.00
2018-09-17T20:05:53.837Z,92.20
2018-09-17T20:08:24.773Z,92.30
2018-09-17T20:10:55.304Z,92.10
2018-09-17T20:13:26.220Z,92.10
2018-09-17T20:16:00.207Z,92.00
2018-09-17T20:18:31.755Z,91.90
2018-09-17T20:21:02.361Z,91.80
2018-09-17T20:23:32.969Z,91.90
2018-09-17T20:26:03.478Z,92.60
2018-09-17T20:28:34.407Z,93.10
2018-09-17T20:31:05.452Z,93.20
2018-09-17T20:33:37.291Z,93.00
2018-09-17T20:36:08.250Z,93.10
2018-09-17T20:38:39.227Z,93.30
2018-09-17T20:41:09.677Z,93.00
2018-09-17T20:43:40.520Z,94.00
2018-09-17T20:46:11.045Z,93.20
2018-09-17T20:48:41.871Z,93.60
2018-09-17T20:51:12.654Z,93.80
2018-09-17T20:53:44.214Z,93.80
2018-09-17T20:56:14.770Z,94.00
2018-09-17T20:58:45.662Z,93.60
2018-09-17T21:01:16.243Z,93.90
2018-09-17T21:03:47.135Z,93.30
2018-09-17T21:06:17.679Z,94.00
2018-09-17T21:08:49.124Z,93.90
2018-09-17T21:11:19.589Z,94.20
2018-09-17T21:13:50.393Z,94.40
2018-09-17T21:16:20.915Z,94.80
2018-09-17T21:18:51.806Z,94.40
2018-09-17T21:21:22.952Z,94.30
2018-09-17T21:23:53.826Z,94.10
2018-09-17T21:26:24.317Z,94.70
2018-09-17T21:28:55.502Z,94.70
2018-09-17T21:31:26.052Z,94.30
2018-09-17T21:33:56.929Z,94.30
2018-09-17T21:36:27.273Z,94.60
2018-09-17T21:38:57.783Z,94.50
2018-09-17T21:41:28.136Z,94.80
2018-09-17T21:43:58.440Z,94.50
2018-09-17T21:46:28.734Z,94.60
2018-09-17T21:48:59.727Z,94.70
2018-09-17T21:51:30.014Z,94.70
2018-09-17T21:54:00.715Z,94.50
2018-09-17T21:56:30.967Z,94.50
2018-09-17T21:59:01.527Z,94.40
2018-09-17T22:01:31.838Z,94.50
2018-09-17T22:04:02.797Z,94.50
2018-09-17T22:06:33.132Z,94.50
2018-09-17T22:09:04.100Z,94.60
2018-09-17T22:11:34.363Z,94.40
2018-09-17T22:14:04.661Z,94.30
2018-09-17T22:16:34.995Z,94.10
2018-09-17T22:19:05.570Z,94.70
2018-09-17T22:21:35.860Z,94.40
2018-09-17T22:24:06.496Z,94.60
2018-09-17T22:26:36.793Z,94.70
2018-09-17T22:29:07.419Z,95.00
2018-09-17T22:31:37.697Z,94.90
2018-09-17T22:34:08.350Z,95.40
2018-09-17T22:36:38.611Z,95.40
2018-09-17T22:39:10.602Z,95.00
2018-09-17T22:41:41.408Z,95.10
2018-09-17T22:44:11.931Z,95.00
2018-09-17T22:46:42.201Z,95.10
2018-09-17T22:49:12.500Z,95.10
2018-09-17T22:51:42.842Z,95.20
2018-09-17T22:54:13.679Z,95.40
2018-09-17T22:56:43.966Z,95.10
2018-09-17T22:59:14.293Z,95.60
2018-09-17T23:01:44.637Z,95.40
2018-09-17T23:04:15.324Z,95.50
2018-09-17T23:06:45.973Z,95.40
2018-09-17T23:09:16.638Z,95.30
2018-09-17T23:11:46.936Z,95.30
2018-09-17T23:14:17.684Z,95.40
2018-09-17T23:16:48.004Z,95.20
2018-09-17T23:19:18.338Z,95.60
2018-09-17T23:21:49.002Z,95.40
2018-09-17T23:24:19.426Z,95.50
2018-09-17T23:26:49.723Z,95.40
2018-09-17T23:29:20.030Z,95.40
2018-09-17T23:31:50.315Z,95.30
2018-09-17T23:34:20.666Z,95.30
2018-09-17T23:36:51.104Z,95.50
2018-09-17T23:39:21.378Z,95.20
2018-09-17T23:41:51.668Z,95.40
2018-09-17T23:44:22.001Z,95.40
2018-09-17T23:46:52.291Z,95.40
2018-09-17T23:49:22.564Z,95.30
2018-09-17T23:51:52.872Z,95.20
2018-09-17T23:54:23.201Z,95.20
2018-09-17T23:56:53.501Z,95.20
2018-09-17T23:59:23.895Z,95.30
